createdAt,value
2019-01-31T00:02:48.959Z,8.77
2019-01-31T00:06:08.674Z,8.20
2019-01-31T00:09:09.291Z,7.70
2019-01-31T00:12:23.787Z,8.93
2019-01-31T00:15:34.963Z,8.77
2019-01-31T00:18:51.714Z,9.47
2019-01-31T00:22:14.363Z,9.97
2019-01-31T00:25:01.278Z,10.53
2019-01-31T00:28:33.070Z,9.40
2019-01-31T00:31:29.303Z,9.80
2019-01-31T00:34:52.918Z,10.77
2019-01-31T00:38:02.967Z,9.47
2019-01-31T00:41:15.835Z,11.43
2019-01-31T00:44:23.527Z,8.97
2019-01-31T00:47:25.263Z,10.10
2019-01-31T00:50:30.232Z,11.33
2019-01-31T00:53:48.937Z,9.50
2019-01-31T00:56:48.214Z,9.10
2019-01-31T00:59:55.879Z,10.70
2019-01-31T01:03:02.404Z,11.50
2019-01-31T01:06:27.907Z,11.60
2019-01-31T01:09:18.440Z,11.37
2019-01-31T01:12:22.970Z,10.47
2019-01-31T01:15:52.801Z,12.97
2019-01-31T01:19:12.540Z,11.80
2019-01-31T01:22:25.228Z,10.17
2019-01-31T01:25:30.917Z,10.90
2019-01-31T01:28:23.599Z,12.10
2019-01-31T01:31:42.935Z,10.30
2019-01-31T01:35:01.420Z,11.87
2019-01-31T01:38:30.529Z,12.20
2019-01-31T01:41:29.610Z,12.10
2019-01-31T01:45:05.473Z,12.07
2019-01-31T01:47:46.023Z,11.63
2019-01-31T01:50:57.761Z,12.80
2019-01-31T01:54:02.586Z,11.00
2019-01-31T01:57:01.278Z,12.40
2019-01-31T02:00:21.624Z,12.80
2019-01-31T02:03:31.432Z,13.00
2019-01-31T02:06:50.146Z,14.77
2019-01-31T02:10:15.375Z,13.30
2019-01-31T02:13:28.904Z,13.57
2019-01-31T02:16:42.095Z,14.90
2019-01-31T02:19:54.048Z,13.87
2019-01-31T02:23:04.267Z,15.83
2019-01-31T02:26:03.060Z,15.60
2019-01-31T02:29:36.681Z,15.50
2019-01-31T02:32:57.774Z,14.67
2019-01-31T02:36:00.747Z,16.83
2019-01-31T02:39:25.199Z,16.90
2019-01-31T02:42:44.485Z,15.87
2019-01-31T02:46:03.664Z,15.70
2019-01-31T02:49:00.389Z,16.57
2019-01-31T02:52:12.415Z,16.23
2019-01-31T02:54:58.682Z,16.83
2019-01-31T02:58:10.075Z,18.80
2019-01-31T03:01:09.260Z,17.33
2019-01-31T03:04:17.264Z,16.93
2019-01-31T03:07:17.153Z,18.27
2019-01-31T03:10:21.166Z,15.70
2019-01-31T03:13:42.000Z,14.37
2019-01-31T03:17:04.980Z,18.13
2019-01-31T03:20:35.438Z,18.30
2019-01-31T03:24:01.470Z,16.63
2019-01-31T03:27:25.819Z,18.63
2019-01-31T03:30:35.604Z,16.17
2019-01-31T03:33:23.553Z,18.07
2019-01-31T03:36:48.575Z,16.50
2019-01-31T03:40:07.086Z,14.60
2019-01-31T03:43:36.910Z,16.40
2019-01-31T03:46:59.067Z,16.00
2019-01-31T03:50:01.637Z,16.10
2019-01-31T03:53:28.473Z,15.00
2019-01-31T03:56:58.988Z,14.17
2019-01-31T03:59:45.387Z,15.63
2019-01-31T04:02:44.810Z,15.50
2019-01-31T04:05:36.142Z,14.47
2019-01-31T04:08:06.256Z,14.80
2019-01-31T04:10:36.199Z,14.63
2019-01-31T04:13:06.240Z,15.50
2019-01-31T04:15:36.082Z,14.53
2019-01-31T04:18:06.408Z,12.83
2019-01-31T04:20:36.282Z,14.50
2019-01-31T04:23:06.387Z,13.67
2019-01-31T04:25:36.249Z,15.23
2019-01-31T04:28:06.579Z,14.13
2019-01-31T04:30:36.403Z,13.60
2019-01-31T04:33:06.623Z,15.80
2019-01-31T04:35:36.555Z,18.77
2019-01-31T04:38:06.443Z,15.57
2019-01-31T04:40:36.264Z,16.77
2019-01-31T04:43:06.146Z,16.00
2019-01-31T04:45:36.012Z,13.77
2019-01-31T04:48:06.457Z,13.90
2019-01-31T04:50:36.323Z,14.00
2019-01-31T04:53:06.269Z,13.40
2019-01-31T04:55:36.594Z,14.60
2019-01-31T04:58:06.758Z,13.33
2019-01-31T05:00:36.659Z,14.00
2019-01-31T05:03:06.593Z,14.07
2019-01-31T05:05:36.601Z,14.97
2019-01-31T05:08:06.608Z,13.80
2019-01-31T05:10:43.259Z,14.20
2019-01-31T05:13:08.231Z,13.97
2019-01-31T05:15:38.080Z,12.30
2019-01-31T05:18:08.009Z,13.37
2019-01-31T05:20:37.859Z,13.37
2019-01-31T05:23:07.754Z,12.57
2019-01-31T05:25:37.627Z,13.80
2019-01-31T05:28:07.749Z,13.60
2019-01-31T05:30:37.597Z,12.03
2019-01-31T05:33:07.439Z,13.00
2019-01-31T05:35:37.532Z,11.67
2019-01-31T05:38:07.635Z,13.70
2019-01-31T05:40:37.713Z,11.47
2019-01-31T05:43:07.578Z,11.67
2019-01-31T05:45:37.417Z,11.63
2019-01-31T05:48:07.289Z,12.87
2019-01-31T05:50:37.126Z,15.13
2019-01-31T05:53:07.390Z,12.43
2019-01-31T05:55:37.236Z,13.10
2019-01-31T05:58:07.200Z,12.13
2019-01-31T06:00:38.812Z,12.03
2019-01-31T06:03:08.717Z,13.87
2019-01-31T06:05:39.056Z,13.70
2019-01-31T06:08:08.933Z,13.23
2019-01-31T06:10:39.075Z,13.90
2019-01-31T06:13:08.933Z,13.67
2019-01-31T06:15:39.169Z,13.23
2019-01-31T06:18:09.231Z,15.00
2019-01-31T06:20:39.068Z,15.43
2019-01-31T06:23:09.054Z,15.60
2019-01-31T06:25:39.149Z,14.33
2019-01-31T06:28:09.282Z,12.83
2019-01-31T06:30:39.602Z,14.40
2019-01-31T06:33:09.509Z,15.60
2019-01-31T06:35:39.353Z,15.90
2019-01-31T06:38:09.315Z,16.43
2019-01-31T06:40:39.164Z,15.80
2019-01-31T06:43:08.999Z,14.77
2019-01-31T06:45:39.083Z,13.57
2019-01-31T06:48:09.179Z,14.70
2019-01-31T06:50:39.111Z,16.37
2019-01-31T06:53:08.950Z,15.03
2019-01-31T06:55:38.801Z,16.40
2019-01-31T06:58:08.727Z,15.17
2019-01-31T07:00:38.571Z,15.80
2019-01-31T07:06:55.636Z,14.13
2019-01-31T07:09:25.544Z,17.33
2019-01-31T07:11:55.671Z,16.53
2019-01-31T07:14:25.649Z,17.17
2019-01-31T07:16:55.685Z,17.90
2019-01-31T07:19:26.075Z,15.60
2019-01-31T07:21:56.294Z,16.00
2019-01-31T07:24:26.208Z,17.60
2019-01-31T07:26:56.597Z,15.67
2019-01-31T07:29:26.609Z,16.57
2019-01-31T07:31:56.772Z,23.73
2019-01-31T07:34:26.990Z,21.47
2019-01-31T07:36:57.198Z,18.47
2019-01-31T07:39:27.537Z,17.23
2019-01-31T07:41:57.638Z,16.70
2019-01-31T07:44:27.853Z,16.47
2019-01-31T07:46:57.805Z,16.43
2019-01-31T07:49:28.221Z,14.60
2019-01-31T07:51:58.191Z,16.57
2019-01-31T07:54:28.379Z,17.60
2019-01-31T07:56:58.517Z,16.63
2019-01-31T07:59:28.439Z,15.13
2019-01-31T08:01:58.300Z,20.40
2019-01-31T08:04:28.198Z,17.67
2019-01-31T08:06:58.589Z,16.30
2019-01-31T08:09:29.040Z,15.27
2019-01-31T08:11:59.447Z,15.03
2019-01-31T08:14:31.339Z,14.70
2019-01-31T08:17:20.371Z,14.83
2019-01-31T08:19:50.293Z,13.77
2019-01-31T08:22:20.520Z,14.00
2019-01-31T08:24:50.698Z,15.40
2019-01-31T08:27:20.637Z,12.90
2019-01-31T08:29:50.827Z,14.60
2019-01-31T08:32:20.997Z,12.43
2019-01-31T08:34:50.945Z,13.80
2019-01-31T08:37:21.138Z,13.30
2019-01-31T08:39:51.070Z,12.77
2019-01-31T08:42:21.248Z,13.60
2019-01-31T08:44:51.421Z,11.50
2019-01-31T08:47:21.616Z,12.10
2019-01-31T08:49:51.547Z,10.83
2019-01-31T08:52:21.787Z,12.30
2019-01-31T08:54:52.255Z,11.50
2019-01-31T08:57:22.693Z,10.57
2019-01-31T08:59:52.836Z,10.30
2019-01-31T09:02:23.254Z,11.33
2019-01-31T09:04:53.538Z,12.03
2019-01-31T09:07:23.719Z,10.73
2019-01-31T09:09:53.897Z,10.73
2019-01-31T09:12:24.320Z,12.77
2019-01-31T09:14:55.073Z,11.77
2019-01-31T09:17:25.072Z,7.53
2019-01-31T09:19:55.245Z,7.90
2019-01-31T09:22:39.355Z,6.33
2019-01-31T09:25:52.846Z,6.93
2019-01-31T09:28:44.742Z,6.40
2019-01-31T09:32:25.263Z,7.00
2019-01-31T09:35:58.473Z,7.10
2019-01-31T09:39:32.993Z,6.27
2019-01-31T09:42:26.821Z,11.33
2019-01-31T09:45:11.834Z,10.90
2019-01-31T09:48:24.163Z,5.33
2019-01-31T09:51:45.500Z,8.93
2019-01-31T09:54:53.646Z,6.20
2019-01-31T09:58:28.288Z,7.67
2019-01-31T10:01:24.521Z,7.87
2019-01-31T10:04:34.139Z,8.80
2019-01-31T10:08:02.393Z,10.90
2019-01-31T10:11:12.540Z,9.70
2019-01-31T10:14:39.574Z,9.73
2019-01-31T10:18:05.969Z,10.90
2019-01-31T10:21:17.516Z,8.33
2019-01-31T10:24:14.745Z,10.03
2019-01-31T10:27:50.311Z,12.80
2019-01-31T10:31:08.060Z,12.23
2019-01-31T10:34:32.694Z,8.87
2019-01-31T10:37:52.686Z,8.60
2019-01-31T10:41:27.546Z,6.53
2019-01-31T10:44:43.876Z,7.53
2019-01-31T10:48:07.644Z,8.53
2019-01-31T10:51:56.260Z,12.00
2019-01-31T10:55:20.161Z,8.07
2019-01-31T10:58:40.644Z,10.57
2019-01-31T11:01:58.514Z,8.03
2019-01-31T11:05:20.617Z,9.13
2019-01-31T11:08:16.415Z,7.77
2019-01-31T11:11:29.437Z,9.60
2019-01-31T11:14:48.552Z,9.33
2019-01-31T11:18:12.674Z,8.07
2019-01-31T11:21:45.976Z,7.57
2019-01-31T11:24:36.665Z,7.77
2019-01-31T11:27:52.445Z,7.40
2019-01-31T11:30:54.651Z,8.73
2019-01-31T11:34:32.436Z,9.40
2019-01-31T11:37:31.859Z,6.70
2019-01-31T11:40:46.358Z,6.50
2019-01-31T11:43:41.377Z,6.20
2019-01-31T11:46:55.562Z,7.13
2019-01-31T11:50:05.447Z,7.97
2019-01-31T11:53:21.400Z,7.40
2019-01-31T11:56:48.338Z,6.07
2019-01-31T11:59:18.792Z,5.70
2019-01-31T12:01:48.859Z,4.60
2019-01-31T12:04:19.909Z,6.33
2019-01-31T12:06:50.426Z,5.77
2019-01-31T12:09:22.266Z,5.10
2019-01-31T12:11:53.017Z,5.00
2019-01-31T12:14:22.946Z,4.20
2019-01-31T12:16:53.745Z,7.83
2019-01-31T12:19:24.158Z,5.20
2019-01-31T12:21:57.722Z,5.90
2019-01-31T12:24:28.142Z,4.37
2019-01-31T12:26:58.584Z,4.00
2019-01-31T12:29:28.489Z,4.03
2019-01-31T12:31:58.670Z,5.73
2019-01-31T12:34:28.908Z,7.83
2019-01-31T12:36:58.896Z,5.07
2019-01-31T12:39:29.487Z,3.67
2019-01-31T12:42:00.128Z,3.90
2019-01-31T12:44:30.706Z,5.20
2019-01-31T12:47:00.598Z,4.53
2019-01-31T12:49:31.052Z,3.87
2019-01-31T12:52:04.177Z,4.43
2019-01-31T12:54:33.140Z,3.97
2019-01-31T12:57:03.481Z,5.47
2019-01-31T12:59:33.713Z,4.80
2019-01-31T13:02:04.222Z,10.83
2019-01-31T13:04:34.466Z,3.73
2019-01-31T13:07:05.232Z,4.90
2019-01-31T13:09:35.643Z,3.67
2019-01-31T13:12:05.705Z,2.17
2019-01-31T13:14:35.602Z,6.50
2019-01-31T13:17:07.384Z,3.73
2019-01-31T13:19:37.959Z,2.07
2019-01-31T13:22:08.137Z,3.90
2019-01-31T13:24:38.583Z,2.67
2019-01-31T13:27:09.084Z,3.37
2019-01-31T13:29:39.239Z,4.23
2019-01-31T13:32:09.538Z,3.40
2019-01-31T13:34:39.981Z,16.33
2019-01-31T13:37:10.413Z,3.10
2019-01-31T13:39:40.507Z,4.97
2019-01-31T13:42:10.403Z,6.77
2019-01-31T13:44:40.597Z,3.47
2019-01-31T13:47:10.737Z,4.97
2019-01-31T13:49:40.937Z,4.47
2019-01-31T13:52:11.098Z,5.10
2019-01-31T13:54:41.402Z,9.03
2019-01-31T13:57:11.309Z,4.83
2019-01-31T13:59:41.527Z,4.30
2019-01-31T14:02:11.466Z,3.90
2019-01-31T14:04:41.671Z,4.27
2019-01-31T14:07:11.641Z,6.53
2019-01-31T14:09:41.568Z,5.60
2019-01-31T14:12:11.994Z,5.13
2019-01-31T14:14:41.925Z,6.03
2019-01-31T14:17:12.172Z,5.27
2019-01-31T14:19:42.694Z,5.53
2019-01-31T14:22:12.879Z,5.57
2019-01-31T14:24:43.842Z,4.63
2019-01-31T14:27:13.865Z,4.60
2019-01-31T14:29:44.057Z,4.27
2019-01-31T14:32:15.655Z,4.33
2019-01-31T14:34:45.897Z,5.80
2019-01-31T14:37:16.038Z,4.53
2019-01-31T14:39:46.196Z,4.90
2019-01-31T14:42:16.375Z,4.20
2019-01-31T14:44:46.378Z,7.53
2019-01-31T14:47:16.847Z,9.63
2019-01-31T14:49:46.806Z,5.73
2019-01-31T14:52:16.754Z,5.27
2019-01-31T14:54:46.646Z,4.43
2019-01-31T14:57:16.540Z,3.57
2019-01-31T14:59:46.713Z,6.17
2019-01-31T15:02:16.633Z,3.87
2019-01-31T15:04:46.819Z,3.30
2019-01-31T15:07:16.713Z,3.47
2019-01-31T15:09:46.640Z,4.80
2019-01-31T15:12:16.851Z,4.00
2019-01-31T15:14:47.288Z,5.20
2019-01-31T15:17:17.440Z,5.00
2019-01-31T15:19:47.639Z,3.20
2019-01-31T15:22:17.793Z,5.53
2019-01-31T15:24:47.975Z,6.67
2019-01-31T15:27:17.921Z,7.77
2019-01-31T15:29:48.106Z,3.83
2019-01-31T15:32:18.283Z,7.63
2019-01-31T15:34:48.601Z,4.77
2019-01-31T15:37:19.004Z,5.73
2019-01-31T15:39:48.926Z,4.97
2019-01-31T15:42:19.349Z,6.13
2019-01-31T15:44:49.281Z,4.13
2019-01-31T15:47:19.359Z,15.47
2019-01-31T15:49:49.522Z,9.13
2019-01-31T15:52:19.460Z,6.27
2019-01-31T15:54:49.694Z,4.43
2019-01-31T15:57:20.925Z,6.70
2019-01-31T15:59:51.464Z,5.47
2019-01-31T16:02:21.771Z,8.10
2019-01-31T16:04:51.735Z,8.03
2019-01-31T16:07:22.025Z,7.23
2019-01-31T16:09:52.245Z,6.37
2019-01-31T16:12:22.155Z,7.43
2019-01-31T16:14:55.050Z,5.23
2019-01-31T16:17:24.336Z,5.47
2019-01-31T16:19:54.564Z,7.97
2019-01-31T16:22:24.470Z,5.07
2019-01-31T16:24:54.370Z,7.57
2019-01-31T16:27:24.358Z,4.90
2019-01-31T16:29:54.336Z,5.90
2019-01-31T16:32:24.210Z,7.17
2019-01-31T16:34:54.259Z,12.73
2019-01-31T16:37:25.008Z,12.23
2019-01-31T16:39:55.483Z,13.27
2019-01-31T16:42:25.478Z,14.63
2019-01-31T16:45:06.130Z,13.43
2019-01-31T16:47:27.340Z,5.73
2019-01-31T16:49:57.247Z,9.50
2019-01-31T16:52:27.163Z,9.03
2019-01-31T16:54:57.052Z,8.50
2019-01-31T16:57:27.343Z,6.60
2019-01-31T16:59:57.756Z,6.03
2019-01-31T17:02:28.002Z,7.03
2019-01-31T17:04:58.001Z,9.57
2019-01-31T17:07:28.044Z,5.90
2019-01-31T17:09:58.530Z,13.70
2019-01-31T17:12:28.454Z,4.43
2019-01-31T17:14:58.890Z,9.83
2019-01-31T17:17:29.102Z,10.47
2019-01-31T17:19:59.347Z,7.53
2019-01-31T17:22:29.252Z,11.77
2019-01-31T17:24:59.144Z,10.00
2019-01-31T17:27:29.314Z,6.03
2019-01-31T17:30:00.092Z,9.13
2019-01-31T17:32:30.058Z,8.73
2019-01-31T17:35:00.229Z,13.40
2019-01-31T17:37:30.126Z,11.07
2019-01-31T17:40:00.309Z,8.70
2019-01-31T17:42:30.231Z,7.97
2019-01-31T17:45:00.199Z,4.90
2019-01-31T17:47:30.167Z,7.37
2019-01-31T17:50:00.318Z,4.80
2019-01-31T17:52:30.632Z,6.97
2019-01-31T17:55:00.803Z,6.37
2019-01-31T17:57:30.947Z,9.20
2019-01-31T18:00:01.107Z,16.20
2019-01-31T18:02:31.030Z,8.50
2019-01-31T18:05:01.195Z,8.43
2019-01-31T18:07:31.117Z,10.53
2019-01-31T18:10:01.058Z,5.60
2019-01-31T18:12:31.253Z,8.93
2019-01-31T18:15:02.014Z,11.97
2019-01-31T18:17:32.154Z,14.50
2019-01-31T18:20:02.093Z,25.00
2019-01-31T18:22:32.005Z,25.77
2019-01-31T18:25:02.174Z,19.33
2019-01-31T18:27:32.360Z,22.60
2019-01-31T18:30:02.557Z,13.27
2019-01-31T18:32:32.730Z,16.37
2019-01-31T18:35:03.160Z,10.93
2019-01-31T18:37:33.316Z,11.13
2019-01-31T18:40:03.361Z,11.90
2019-01-31T18:42:33.549Z,7.70
2019-01-31T18:45:04.090Z,9.27
2019-01-31T18:47:34.261Z,9.07
2019-01-31T18:50:05.628Z,13.37
2019-01-31T18:52:35.523Z,7.70
2019-01-31T18:55:06.438Z,10.23
2019-01-31T18:57:36.677Z,11.90
2019-01-31T19:00:15.840Z,9.90
2019-01-31T19:02:45.846Z,7.93
2019-01-31T19:05:16.112Z,9.60
2019-01-31T19:07:46.393Z,9.23
2019-01-31T19:10:16.695Z,10.70
2019-01-31T19:12:47.061Z,11.00
2019-01-31T19:15:18.054Z,10.70
2019-01-31T19:17:48.326Z,16.50
2019-01-31T19:20:21.946Z,11.20
2019-01-31T19:22:52.449Z,9.97
2019-01-31T19:25:22.824Z,14.70
2019-01-31T19:27:53.013Z,9.20
2019-01-31T19:30:26.067Z,10.43
2019-01-31T19:32:56.071Z,8.43
2019-01-31T19:35:26.186Z,8.40
2019-01-31T19:38:01.902Z,11.70
2019-01-31T19:40:31.715Z,12.53
2019-01-31T19:43:01.686Z,9.13
2019-01-31T19:45:40.769Z,12.00
2019-01-31T19:48:11.245Z,16.43
2019-01-31T19:50:43.598Z,10.63
2019-01-31T19:53:13.632Z,8.13
2019-01-31T19:55:44.315Z,14.40
2019-01-31T19:58:15.000Z,10.50
2019-01-31T20:00:44.954Z,7.20
2019-01-31T20:03:15.165Z,11.20
2019-01-31T20:05:45.107Z,10.33
2019-01-31T20:08:15.112Z,15.57
2019-01-31T20:10:45.408Z,8.17
2019-01-31T20:13:15.511Z,12.10
2019-01-31T20:15:46.165Z,11.27
2019-01-31T20:18:16.048Z,16.97
2019-01-31T20:20:46.446Z,11.40
2019-01-31T20:23:16.669Z,9.77
2019-01-31T20:25:46.658Z,9.60
2019-01-31T20:28:16.811Z,12.13
2019-01-31T20:30:47.011Z,12.20
2019-01-31T20:33:16.901Z,8.00
2019-01-31T20:35:47.074Z,6.43
2019-01-31T20:38:17.238Z,13.37
2019-01-31T20:40:47.716Z,15.03
2019-01-31T20:43:17.693Z,8.60
2019-01-31T20:45:47.916Z,10.03
2019-01-31T20:48:18.730Z,10.50
2019-01-31T20:50:48.704Z,15.53
2019-01-31T20:53:18.919Z,19.67
2019-01-31T20:55:49.171Z,16.70
2019-01-31T20:58:19.157Z,12.33
2019-01-31T21:00:49.842Z,10.63
2019-01-31T21:03:19.693Z,14.77
2019-01-31T21:05:49.633Z,10.90
2019-01-31T21:08:19.500Z,11.30
2019-01-31T21:10:50.053Z,11.50
2019-01-31T21:13:19.983Z,10.53
2019-01-31T21:15:52.832Z,13.77
2019-01-31T21:18:21.568Z,13.53
2019-01-31T21:20:51.667Z,17.77
2019-01-31T21:23:21.544Z,12.10
2019-01-31T21:25:51.367Z,14.47
2019-01-31T21:28:21.329Z,17.77
2019-01-31T21:30:51.495Z,15.83
2019-01-31T21:33:21.328Z,11.97
2019-01-31T21:35:51.340Z,15.20
2019-01-31T21:38:21.159Z,18.70
2019-01-31T21:40:51.069Z,14.37
2019-01-31T21:43:20.899Z,16.63
2019-01-31T21:45:50.759Z,19.40
2019-01-31T21:48:20.629Z,14.47
2019-01-31T21:50:50.510Z,19.10
2019-01-31T21:53:20.747Z,17.60
2019-01-31T21:55:50.869Z,16.83
2019-01-31T21:58:20.712Z,19.30
2019-01-31T22:00:50.806Z,17.70
2019-01-31T22:03:20.680Z,19.77
2019-01-31T22:05:50.508Z,18.97
2019-01-31T22:08:20.468Z,17.97
2019-01-31T22:10:50.405Z,21.47
2019-01-31T22:13:20.237Z,17.13
2019-01-31T22:15:50.069Z,16.60
2019-01-31T22:18:20.030Z,26.03
2019-01-31T22:20:50.152Z,19.57
2019-01-31T22:23:20.043Z,22.67
2019-01-31T22:25:49.971Z,23.13
2019-01-31T22:28:19.831Z,23.93
2019-01-31T22:30:49.692Z,30.70
2019-01-31T22:33:19.653Z,30.57
2019-01-31T22:35:50.906Z,26.80
2019-01-31T22:38:20.782Z,29.43
2019-01-31T22:40:50.659Z,24.97
2019-01-31T22:43:20.827Z,30.83
2019-01-31T22:45:50.724Z,31.27
2019-01-31T22:48:20.547Z,30.73
2019-01-31T22:50:50.407Z,35.33
2019-01-31T22:53:20.246Z,29.90
2019-01-31T22:55:50.913Z,37.07
2019-01-31T22:58:20.790Z,28.80
2019-01-31T23:01:24.379Z,28.97
2019-01-31T23:03:54.575Z,28.73
2019-01-31T23:06:25.252Z,31.93
2019-01-31T23:08:55.131Z,29.60
2019-01-31T23:11:25.070Z,28.40
2019-01-31T23:13:54.948Z,35.00
2019-01-31T23:16:24.878Z,30.43
2019-01-31T23:18:55.004Z,34.77
2019-01-31T23:21:24.833Z,29.37
2019-01-31T23:23:54.720Z,35.37
2019-01-31T23:26:24.802Z,36.93
2019-01-31T23:28:54.710Z,30.80
2019-01-31T23:31:24.568Z,33.93
2019-01-31T23:33:54.402Z,30.93
2019-01-31T23:36:24.520Z,29.83
2019-01-31T23:38:54.907Z,32.80
2019-01-31T23:41:24.789Z,34.30
2019-01-31T23:43:54.993Z,36.47
2019-01-31T23:46:25.292Z,34.20
2019-01-31T23:48:55.129Z,34.50
2019-01-31T23:51:25.051Z,34.23
2019-01-31T23:53:55.277Z,36.93
2019-01-31T23:56:25.196Z,37.47
2019-01-31T23:58:55.518Z,41.70
